createdAt,value
2019-03-15T00:02:06.217Z,99108.68
2019-03-15T00:04:39.848Z,99097.86
2019-03-15T00:07:09.154Z,99090.95
2019-03-15T00:09:39.653Z,99098.25
2019-03-15T00:12:10.145Z,99111.91
2019-03-15T00:14:40.642Z,99123.98
2019-03-15T00:17:11.102Z,99107.95
2019-03-15T00:19:41.603Z,99106.75
2019-03-15T00:22:12.076Z,99116.19
2019-03-15T00:24:42.711Z,99120.39
2019-03-15T00:27:13.172Z,99128.83
2019-03-15T00:29:43.652Z,99136.22
2019-03-15T00:32:16.532Z,99142.60
2019-03-15T00:34:47.003Z,99137.67
2019-03-15T00:37:17.485Z,99147.55
2019-03-15T00:39:47.950Z,99142.51
2019-03-15T00:42:18.456Z,99153.25
2019-03-15T00:44:48.908Z,99146.30
2019-03-15T00:47:19.381Z,99161.18
2019-03-15T00:49:49.859Z,99163.59
2019-03-15T00:52:20.343Z,99168.83
2019-03-15T00:54:50.818Z,99199.02
2019-03-15T00:57:21.313Z,99169.23
2019-03-15T00:59:51.714Z,99192.41
2019-03-15T01:02:22.168Z,99176.83
2019-03-15T01:04:52.585Z,99191.02
2019-03-15T01:07:23.007Z,99192.06
2019-03-15T01:09:53.470Z,99192.33
2019-03-15T01:12:24.173Z,99201.50
2019-03-15T01:14:54.618Z,99205.30
2019-03-15T01:17:25.091Z,99227.49
2019-03-15T01:19:55.559Z,99218.19
2019-03-15T01:22:26.029Z,99213.77
2019-03-15T01:24:56.482Z,99218.50
2019-03-15T01:27:26.964Z,99221.09
2019-03-15T01:29:57.423Z,99235.34
2019-03-15T01:32:27.919Z,99240.92
2019-03-15T01:34:58.558Z,99237.47
2019-03-15T01:37:29.006Z,99241.41
2019-03-15T01:39:59.467Z,99262.36
2019-03-15T01:42:29.971Z,99241.27
2019-03-15T01:45:00.476Z,99259.95
2019-03-15T01:47:30.956Z,99265.20
2019-03-15T01:50:01.412Z,99271.13
2019-03-15T01:52:31.909Z,99262.77
2019-03-15T01:55:02.309Z,99267.47
2019-03-15T01:57:32.740Z,99271.27
2019-03-15T02:00:03.302Z,99287.05
2019-03-15T02:02:33.644Z,99280.56
2019-03-15T02:05:04.217Z,99279.26
2019-03-15T02:07:34.813Z,99291.81
2019-03-15T02:10:06.029Z,99292.09
2019-03-15T02:12:36.452Z,99297.16
2019-03-15T02:15:07.818Z,99308.77
2019-03-15T02:17:38.409Z,99293.04
2019-03-15T02:20:09.517Z,99307.09
2019-03-15T02:22:39.971Z,99306.89
2019-03-15T02:25:10.428Z,99304.00
2019-03-15T02:27:40.905Z,99319.22
2019-03-15T02:30:11.730Z,99309.03
2019-03-15T02:32:42.174Z,99314.82
2019-03-15T02:35:12.711Z,99303.70
2019-03-15T02:37:43.144Z,99308.00
2019-03-15T02:40:13.639Z,99324.97
2019-03-15T02:42:44.130Z,99330.62
2019-03-15T02:45:14.653Z,99323.36
2019-03-15T02:47:46.292Z,99321.11
2019-03-15T02:50:17.413Z,99329.58
2019-03-15T02:52:48.279Z,99328.67
2019-03-15T02:55:18.764Z,99331.86
2019-03-15T02:57:49.265Z,99328.00
2019-03-15T03:00:19.774Z,99333.58
2019-03-15T03:02:50.258Z,99340.06
2019-03-15T03:05:20.829Z,99343.86
2019-03-15T03:07:51.386Z,99345.10
2019-03-15T03:10:21.912Z,99346.75
2019-03-15T03:12:52.452Z,99348.40
2019-03-15T03:15:22.900Z,99347.39
2019-03-15T03:17:53.302Z,99351.17
2019-03-15T03:20:23.849Z,99339.09
2019-03-15T03:22:54.356Z,99348.88
2019-03-15T03:25:24.801Z,99351.94
2019-03-15T03:27:55.319Z,99339.64
2019-03-15T03:30:25.790Z,99341.59
2019-03-15T03:32:56.248Z,99346.41
2019-03-15T03:35:26.774Z,99347.35
2019-03-15T03:37:57.288Z,99353.56
2019-03-15T03:40:29.115Z,99351.36
2019-03-15T03:43:00.058Z,99349.86
2019-03-15T03:45:30.514Z,99344.33
2019-03-15T03:48:00.907Z,99346.40
2019-03-15T03:50:31.488Z,99347.50
2019-03-15T03:53:01.869Z,99344.39
2019-03-15T03:55:32.337Z,99341.56
2019-03-15T03:58:02.812Z,99346.13
2019-03-15T04:00:33.285Z,99359.49
2019-03-15T04:03:03.752Z,99343.64
2019-03-15T04:05:34.830Z,99353.15
2019-03-15T04:08:05.402Z,99353.78
2019-03-15T04:10:35.872Z,99358.55
2019-03-15T04:13:06.366Z,99365.56
2019-03-15T04:15:36.839Z,99364.25
2019-03-15T04:18:07.313Z,99371.85
2019-03-15T04:20:37.875Z,99371.22
2019-03-15T04:23:08.375Z,99368.76
2019-03-15T04:25:40.566Z,99369.99
2019-03-15T04:28:11.472Z,99373.84
2019-03-15T04:30:41.942Z,99371.91
2019-03-15T04:33:12.428Z,99372.24
2019-03-15T04:35:43.820Z,99380.89
2019-03-15T04:38:14.335Z,99378.88
2019-03-15T04:40:44.779Z,99379.92
2019-03-15T04:43:15.373Z,99386.20
2019-03-15T04:45:45.866Z,99387.30
2019-03-15T04:48:16.354Z,99389.84
2019-03-15T04:50:47.033Z,99399.78
2019-03-15T04:53:17.594Z,99403.94
2019-03-15T04:55:48.006Z,99400.14
2019-03-15T04:58:18.500Z,99398.55
2019-03-15T05:00:49.016Z,99397.11
2019-03-15T05:03:19.557Z,99398.53
2019-03-15T05:06:02.390Z,99405.33
2019-03-15T05:08:22.376Z,99395.50
2019-03-15T05:10:53.411Z,99396.92
2019-03-15T05:13:23.963Z,99394.30
2019-03-15T05:15:54.528Z,99404.38
2019-03-15T05:18:25.073Z,99399.67
2019-03-15T05:20:55.655Z,99393.63
2019-03-15T05:23:26.193Z,99396.58
2019-03-15T05:25:56.704Z,99404.52
2019-03-15T05:28:27.259Z,99407.75
2019-03-15T05:30:57.786Z,99401.67
2019-03-15T05:33:28.350Z,99404.25
2019-03-15T05:35:58.951Z,99400.43
2019-03-15T05:38:29.496Z,99406.78
2019-03-15T05:41:00.038Z,99399.95
2019-03-15T05:43:30.691Z,99400.52
2019-03-15T05:46:01.266Z,99400.73
2019-03-15T05:48:31.786Z,99406.32
2019-03-15T05:51:02.406Z,99397.89
2019-03-15T05:53:32.922Z,99396.25
2019-03-15T05:56:03.490Z,99396.51
2019-03-15T05:58:34.450Z,99396.72
2019-03-15T06:01:04.949Z,99395.98
2019-03-15T06:03:47.778Z,99387.67
2019-03-15T06:06:08.364Z,99387.67
2019-03-15T06:08:38.955Z,99393.75
2019-03-15T06:11:09.509Z,99388.45
2019-03-15T06:13:40.176Z,99397.41
2019-03-15T06:16:10.751Z,99388.36
2019-03-15T06:18:41.253Z,99399.05
2019-03-15T06:21:11.807Z,99387.52
2019-03-15T06:23:42.358Z,99381.60
2019-03-15T06:26:12.955Z,99385.41
2019-03-15T06:28:43.527Z,99388.16
2019-03-15T06:31:13.999Z,99385.61
2019-03-15T06:33:44.491Z,99394.02
2019-03-15T06:36:15.039Z,99393.48
2019-03-15T06:38:45.619Z,99394.48
2019-03-15T06:41:16.167Z,99396.16
2019-03-15T06:43:46.719Z,99385.06
2019-03-15T06:46:17.217Z,99391.66
2019-03-15T06:48:47.711Z,99385.73
2019-03-15T06:51:18.348Z,99383.80
2019-03-15T06:53:48.916Z,99390.08
2019-03-15T06:56:19.467Z,99390.98
2019-03-15T06:58:49.972Z,99389.61
2019-03-15T07:01:20.502Z,99387.05
2019-03-15T07:03:51.034Z,99401.88
2019-03-15T07:06:21.695Z,99407.06
2019-03-15T07:08:52.291Z,99391.69
2019-03-15T07:11:22.879Z,99389.27
2019-03-15T07:13:53.407Z,99388.63
2019-03-15T07:16:23.913Z,99378.52
2019-03-15T07:18:54.505Z,99388.23
2019-03-15T07:21:25.043Z,99388.00
2019-03-15T07:23:57.887Z,99393.11
2019-03-15T07:26:27.833Z,99380.63
2019-03-15T07:28:58.483Z,99379.25
2019-03-15T07:31:29.053Z,99381.44
2019-03-15T07:33:59.597Z,99380.33
2019-03-15T07:36:30.190Z,99371.86
2019-03-15T07:39:00.720Z,99368.93
2019-03-15T07:41:31.228Z,99364.59
2019-03-15T07:44:01.867Z,99364.05
2019-03-15T07:46:32.398Z,99366.03
2019-03-15T07:49:02.959Z,99361.11
2019-03-15T07:51:33.610Z,99356.00
2019-03-15T07:54:04.122Z,99350.48
2019-03-15T07:56:34.623Z,99346.75
2019-03-15T07:59:05.162Z,99340.13
2019-03-15T08:01:35.644Z,99346.48
2019-03-15T08:04:16.332Z,99353.26
2019-03-15T08:06:38.476Z,99348.73
2019-03-15T08:09:09.637Z,99353.98
2019-03-15T08:11:40.142Z,99345.91
2019-03-15T08:14:10.690Z,99343.15
2019-03-15T08:16:41.195Z,99345.55
2019-03-15T08:19:11.730Z,99349.69
2019-03-15T08:21:42.256Z,99347.98
2019-03-15T08:24:12.751Z,99337.96
2019-03-15T08:26:43.231Z,99331.13
2019-03-15T08:29:13.759Z,99335.12
2019-03-15T08:31:46.947Z,99345.48
2019-03-15T08:34:16.510Z,99343.05
2019-03-15T08:36:47.083Z,99341.16
2019-03-15T08:39:17.624Z,99335.95
2019-03-15T08:41:48.336Z,99329.87
2019-03-15T08:44:18.880Z,99336.34
2019-03-15T08:46:49.388Z,99336.73
2019-03-15T08:49:19.880Z,99328.25
2019-03-15T08:52:03.116Z,99325.94
2019-03-15T08:54:22.739Z,99323.00
2019-03-15T08:56:53.229Z,99321.84
2019-03-15T08:59:23.795Z,99308.33
2019-03-15T09:01:54.339Z,99310.45
2019-03-15T09:04:24.889Z,99305.20
2019-03-15T09:06:55.405Z,99313.22
2019-03-15T09:09:25.922Z,99304.11
2019-03-15T09:11:56.451Z,99297.09
2019-03-15T09:14:26.878Z,99299.59
2019-03-15T09:16:57.404Z,99286.34
2019-03-15T09:19:27.924Z,99274.66
2019-03-15T09:22:00.562Z,99254.70
2019-03-15T09:24:30.961Z,99255.75
2019-03-15T09:27:01.472Z,99270.64
2019-03-15T09:29:32.003Z,99277.11
2019-03-15T09:32:08.714Z,99255.52
2019-03-15T09:34:34.786Z,99253.66
2019-03-15T09:37:05.506Z,99246.58
2019-03-15T09:39:36.055Z,99240.91
2019-03-15T09:42:06.790Z,99256.90
2019-03-15T09:44:37.727Z,99249.90
2019-03-15T09:47:08.359Z,99236.06
2019-03-15T09:49:38.870Z,99217.27
2019-03-15T09:52:09.422Z,99201.48
2019-03-15T09:54:39.969Z,99195.17
2019-03-15T09:57:10.469Z,99182.83
2019-03-15T09:59:41.020Z,99174.26
2019-03-15T10:02:11.537Z,99171.15
2019-03-15T10:04:42.073Z,99156.02
2019-03-15T10:07:12.619Z,99152.91
2019-03-15T10:09:46.177Z,99146.28
2019-03-15T10:12:15.393Z,99145.94
2019-03-15T10:14:45.950Z,99144.41
2019-03-15T10:17:16.438Z,99127.30
2019-03-15T10:19:47.000Z,99126.38
2019-03-15T10:22:17.498Z,99120.46
2019-03-15T10:24:50.010Z,99112.56
2019-03-15T10:27:20.493Z,99116.17
2019-03-15T10:29:50.912Z,99103.94
2019-03-15T10:32:21.383Z,99094.91
2019-03-15T10:34:51.920Z,99076.83
2019-03-15T10:37:22.562Z,99072.36
2019-03-15T10:39:53.134Z,99058.24
2019-03-15T10:42:23.678Z,99054.92
2019-03-15T10:44:54.218Z,99043.13
2019-03-15T10:47:24.767Z,99029.33
2019-03-15T10:49:55.254Z,99030.73
2019-03-15T10:52:25.772Z,99021.84
2019-03-15T10:54:56.261Z,99016.08
2019-03-15T10:57:26.923Z,99000.81
2019-03-15T10:59:57.464Z,99001.30
2019-03-15T11:02:27.955Z,98987.66
2019-03-15T11:04:58.512Z,98984.95
2019-03-15T11:07:29.033Z,98981.45
2019-03-15T11:09:59.563Z,98977.03
2019-03-15T11:12:30.342Z,98970.95
2019-03-15T11:15:00.862Z,98958.28
2019-03-15T11:17:31.440Z,98941.17
2019-03-15T11:20:02.007Z,98945.45
2019-03-15T11:22:32.548Z,98932.77
2019-03-15T11:25:03.097Z,98930.61
2019-03-15T11:27:33.747Z,98917.28
2019-03-15T11:30:04.265Z,98905.61
2019-03-15T11:32:34.787Z,98890.03
2019-03-15T11:35:05.698Z,98897.72
2019-03-15T11:37:36.174Z,98896.06
2019-03-15T11:40:07.699Z,98893.73
2019-03-15T11:42:38.248Z,98891.45
2019-03-15T11:45:09.696Z,98891.30
2019-03-15T11:47:56.376Z,98874.38
2019-03-15T11:50:12.620Z,98871.41
2019-03-15T11:52:43.140Z,98864.48
2019-03-15T11:55:13.623Z,98851.52
2019-03-15T11:57:44.202Z,98852.16
2019-03-15T12:00:14.712Z,98838.23
2019-03-15T12:02:45.253Z,98831.81
2019-03-15T12:05:16.441Z,98830.01
2019-03-15T12:07:46.948Z,98814.28
2019-03-15T12:10:18.038Z,98819.18
2019-03-15T12:12:48.639Z,98820.19
2019-03-15T12:15:19.145Z,98804.58
2019-03-15T12:17:49.702Z,98802.45
2019-03-15T12:20:20.299Z,98795.41
2019-03-15T12:22:50.794Z,98790.14
2019-03-15T12:25:21.293Z,98773.56
2019-03-15T12:27:51.829Z,98764.05
2019-03-15T12:30:22.382Z,98768.16
2019-03-15T12:32:52.869Z,98763.72
2019-03-15T12:35:23.456Z,98772.08
2019-03-15T12:37:53.926Z,98758.80
2019-03-15T12:40:24.405Z,98765.53
2019-03-15T12:42:54.987Z,98758.13
2019-03-15T12:45:25.494Z,98750.92
2019-03-15T12:47:56.016Z,98739.74
2019-03-15T12:50:26.622Z,98744.16
2019-03-15T12:52:57.108Z,98727.91
2019-03-15T12:55:27.615Z,98726.92
2019-03-15T12:57:58.210Z,98743.37
2019-03-15T13:00:28.696Z,98745.01
2019-03-15T13:02:59.331Z,98741.06
2019-03-15T13:05:29.944Z,98734.65
2019-03-15T13:08:00.469Z,98744.98
2019-03-15T13:10:31.015Z,98738.75
2019-03-15T13:13:01.493Z,98730.35
2019-03-15T13:15:32.293Z,98717.03
2019-03-15T13:18:02.862Z,98726.36
2019-03-15T13:20:33.940Z,98727.03
2019-03-15T13:23:04.402Z,98725.03
2019-03-15T13:25:34.882Z,98728.78
2019-03-15T13:28:05.442Z,98725.49
2019-03-15T13:30:35.906Z,98719.53
2019-03-15T13:33:19.149Z,98724.27
2019-03-15T13:35:38.742Z,98728.02
2019-03-15T13:38:09.261Z,98740.78
2019-03-15T13:40:39.755Z,98729.54
2019-03-15T13:43:10.330Z,98728.52
2019-03-15T13:45:40.920Z,98726.41
2019-03-15T13:48:11.379Z,98744.80
2019-03-15T13:50:41.890Z,98737.47
2019-03-15T13:53:12.416Z,98759.29
2019-03-15T13:55:43.022Z,98760.59
2019-03-15T13:58:13.551Z,98744.37
2019-03-15T14:00:44.047Z,98741.41
2019-03-15T14:03:14.637Z,98763.54
2019-03-15T14:05:45.254Z,98764.54
2019-03-15T14:08:15.741Z,98755.95
2019-03-15T14:10:49.637Z,98781.30
2019-03-15T14:13:18.686Z,98770.47
2019-03-15T14:15:49.278Z,98768.05
2019-03-15T14:18:21.541Z,98782.97
2019-03-15T14:20:52.023Z,98788.41
2019-03-15T14:23:22.545Z,98794.42
2019-03-15T14:25:53.049Z,98795.05
2019-03-15T14:28:23.578Z,98796.34
2019-03-15T14:30:54.092Z,98795.30
2019-03-15T14:33:24.688Z,98823.62
2019-03-15T14:35:55.281Z,98809.32
2019-03-15T14:38:26.020Z,98810.02
2019-03-15T14:40:56.493Z,98845.50
2019-03-15T14:43:27.055Z,98828.67
2019-03-15T14:45:57.529Z,98809.27
2019-03-15T14:48:28.077Z,98844.28
2019-03-15T14:50:58.727Z,98826.47
2019-03-15T14:53:29.278Z,98813.99
2019-03-15T14:55:59.784Z,98825.58
2019-03-15T14:58:30.315Z,98847.36
2019-03-15T15:01:00.951Z,98834.09
2019-03-15T15:03:34.621Z,98846.55
2019-03-15T15:06:05.219Z,98850.55
2019-03-15T15:08:35.745Z,98856.15
2019-03-15T15:11:06.393Z,98855.44
2019-03-15T15:13:36.927Z,98842.30
2019-03-15T15:16:07.511Z,98842.45
2019-03-15T15:18:38.304Z,98863.84
2019-03-15T15:21:08.846Z,98882.30
2019-03-15T15:23:39.492Z,98859.12
2019-03-15T15:26:10.075Z,98856.39
2019-03-15T15:28:40.643Z,98852.47
2019-03-15T15:31:11.785Z,98881.02
2019-03-15T15:33:42.378Z,98874.74
2019-03-15T15:36:12.988Z,98856.84
2019-03-15T15:38:43.552Z,98870.71
2019-03-15T15:41:14.091Z,98866.93
2019-03-15T15:43:44.661Z,98868.25
2019-03-15T15:46:16.100Z,98878.33
2019-03-15T15:48:46.686Z,98862.36
2019-03-15T15:51:17.364Z,98866.80
2019-03-15T15:53:48.167Z,98869.80
2019-03-15T15:56:18.731Z,98868.13
2019-03-15T15:58:49.462Z,98875.08
2019-03-15T16:01:20.072Z,98858.45
2019-03-15T16:03:51.151Z,98869.18
2019-03-15T16:06:21.814Z,98920.22
2019-03-15T16:08:52.791Z,98865.56
2019-03-15T16:11:23.650Z,98896.84
2019-03-15T16:13:54.672Z,98866.58
2019-03-15T16:16:25.245Z,98894.41
2019-03-15T16:18:56.150Z,98872.52
2019-03-15T16:21:26.765Z,98912.68
2019-03-15T16:23:57.539Z,98901.48
2019-03-15T16:26:28.068Z,98927.48
2019-03-15T16:28:58.618Z,98900.52
2019-03-15T16:31:29.122Z,98910.88
2019-03-15T16:33:59.968Z,98920.90
2019-03-15T16:36:30.714Z,98894.41
2019-03-15T16:39:01.566Z,98924.67
2019-03-15T16:41:32.167Z,98898.52
2019-03-15T16:44:02.861Z,98904.62
2019-03-15T16:46:33.591Z,98916.94
2019-03-15T16:49:04.917Z,98935.71
2019-03-15T16:51:36.062Z,98923.87
2019-03-15T16:54:06.634Z,98945.39
2019-03-15T16:56:37.213Z,98953.97
2019-03-15T16:59:07.759Z,98938.62
2019-03-15T17:01:38.360Z,98955.91
2019-03-15T17:04:08.974Z,98928.27
2019-03-15T17:06:39.534Z,98950.80
2019-03-15T17:09:10.177Z,98951.11
2019-03-15T17:11:40.701Z,98944.70
2019-03-15T17:14:24.729Z,98972.81
2019-03-15T17:16:43.578Z,98950.30
2019-03-15T17:19:14.080Z,98949.97
2019-03-15T17:21:47.437Z,98954.72
2019-03-15T17:24:18.057Z,98957.70
2019-03-15T17:26:51.328Z,98975.94
2019-03-15T17:29:23.967Z,98999.06
2019-03-15T17:31:54.592Z,98976.72
2019-03-15T17:34:25.148Z,98976.03
2019-03-15T17:37:06.170Z,98986.21
2019-03-15T17:39:28.413Z,99012.35
2019-03-15T17:41:59.207Z,99012.52
2019-03-15T17:44:29.905Z,99005.30
2019-03-15T17:47:00.611Z,99027.30
2019-03-15T17:49:31.229Z,99012.50
2019-03-15T17:52:01.824Z,99004.77
2019-03-15T17:54:32.440Z,99021.90
2019-03-15T17:57:03.018Z,99023.04
2019-03-15T17:59:33.595Z,99028.62
2019-03-15T18:02:04.357Z,99051.62
2019-03-15T18:04:35.098Z,99017.72
2019-03-15T18:07:05.765Z,99042.88
2019-03-15T18:09:36.403Z,99032.20
2019-03-15T18:12:07.021Z,99065.38
2019-03-15T18:14:37.704Z,99032.19
2019-03-15T18:17:08.320Z,99064.04
2019-03-15T18:19:39.122Z,99060.45
2019-03-15T18:22:09.902Z,99077.69
2019-03-15T18:24:43.065Z,99071.09
2019-03-15T18:27:12.688Z,99091.64
2019-03-15T18:29:43.490Z,99086.69
2019-03-15T18:32:14.303Z,99069.94
2019-03-15T18:34:44.884Z,99092.95
2019-03-15T18:37:15.481Z,99095.23
2019-03-15T18:39:46.041Z,99105.23
2019-03-15T18:42:16.631Z,99098.52
2019-03-15T18:44:47.306Z,99100.16
2019-03-15T18:47:17.823Z,99104.40
2019-03-15T18:49:48.432Z,99129.70
2019-03-15T18:52:19.002Z,99130.53
2019-03-15T18:54:49.509Z,99142.00
2019-03-15T18:57:20.106Z,99113.59
2019-03-15T18:59:50.740Z,99143.34
2019-03-15T19:02:21.551Z,99145.80
2019-03-15T19:04:52.155Z,99143.83
2019-03-15T19:07:22.691Z,99146.72
2019-03-15T19:09:53.246Z,99153.65
2019-03-15T19:12:23.796Z,99186.98
2019-03-15T19:14:54.372Z,99176.31
2019-03-15T19:17:24.960Z,99156.83
2019-03-15T19:19:55.537Z,99155.05
2019-03-15T19:22:26.159Z,99160.77
2019-03-15T19:24:56.678Z,99180.11
2019-03-15T19:27:27.758Z,99234.70
2019-03-15T19:29:58.393Z,99169.45
2019-03-15T19:32:28.999Z,99176.17
2019-03-15T19:34:59.695Z,99182.33
2019-03-15T19:37:30.596Z,99178.98
2019-03-15T19:40:01.182Z,99174.58
2019-03-15T19:42:31.833Z,99194.69
2019-03-15T19:45:02.466Z,99220.95
2019-03-15T19:47:33.007Z,99209.13
2019-03-15T19:50:03.647Z,99192.02
2019-03-15T19:52:34.424Z,99199.94
2019-03-15T19:55:05.757Z,99209.50
2019-03-15T19:57:36.510Z,99216.06
2019-03-15T20:00:08.886Z,99233.80
2019-03-15T20:02:39.772Z,99241.39
2019-03-15T20:05:17.509Z,99252.56
2019-03-15T20:07:48.302Z,99244.97
2019-03-15T20:10:18.957Z,99247.27
2019-03-15T20:12:49.618Z,99244.63
2019-03-15T20:15:20.418Z,99262.09
2019-03-15T20:17:51.148Z,99269.91
2019-03-15T20:20:22.021Z,99279.29
2019-03-15T20:22:52.816Z,99255.55
2019-03-15T20:25:23.438Z,99272.44
2019-03-15T20:27:54.091Z,99270.62
2019-03-15T20:30:26.807Z,99280.59
2019-03-15T20:32:57.060Z,99296.55
2019-03-15T20:35:27.872Z,99286.38
2019-03-15T20:37:58.844Z,99285.85
2019-03-15T20:40:29.607Z,99286.55
2019-03-15T20:43:00.332Z,99308.68
2019-03-15T20:45:30.984Z,99302.88
2019-03-15T20:48:01.431Z,99301.56
2019-03-15T20:50:45.863Z,99315.05
2019-03-15T20:53:09.689Z,99316.65
2019-03-15T20:55:39.847Z,99315.67
2019-03-15T20:58:10.879Z,99330.62
2019-03-15T21:00:41.752Z,99312.01
2019-03-15T21:03:12.517Z,99311.67
2019-03-15T21:05:43.438Z,99337.98
2019-03-15T21:08:14.196Z,99347.38
2019-03-15T21:10:47.502Z,99329.20
2019-03-15T21:13:18.215Z,99345.09
2019-03-15T21:15:49.256Z,99355.34
2019-03-15T21:18:20.683Z,99336.13
2019-03-15T21:20:51.570Z,99360.06
2019-03-15T21:23:22.285Z,99382.03
2019-03-15T21:25:53.281Z,99380.14
2019-03-15T21:28:25.101Z,99367.48
2019-03-15T21:30:55.815Z,99375.62
2019-03-15T21:33:26.502Z,99394.30
2019-03-15T21:35:58.249Z,99396.36
2019-03-15T21:38:28.760Z,99403.43
2019-03-15T21:40:59.345Z,99393.84
2019-03-15T21:43:29.864Z,99423.60
2019-03-15T21:46:00.444Z,99402.14
2019-03-15T21:48:30.996Z,99410.94
2019-03-15T21:51:01.906Z,99422.14
2019-03-15T21:53:33.209Z,99432.45
2019-03-15T21:56:03.783Z,99451.09
2019-03-15T21:58:34.336Z,99433.88
2019-03-15T22:01:04.813Z,99436.92
2019-03-15T22:03:35.377Z,99443.20
2019-03-15T22:06:05.846Z,99446.11
2019-03-15T22:08:36.292Z,99472.48
2019-03-15T22:11:20.185Z,99449.53
2019-03-15T22:13:39.084Z,99455.09
2019-03-15T22:16:09.511Z,99454.52
2019-03-15T22:18:40.173Z,99451.87
2019-03-15T22:21:10.696Z,99452.16
2019-03-15T22:23:41.183Z,99447.30
2019-03-15T22:26:11.816Z,99449.18
2019-03-15T22:28:42.270Z,99474.94
2019-03-15T22:31:16.980Z,99455.77
2019-03-15T22:33:45.039Z,99478.60
2019-03-15T22:36:15.543Z,99488.57
2019-03-15T22:38:46.201Z,99473.28
2019-03-15T22:41:16.689Z,99475.33
2019-03-15T22:43:47.231Z,99487.39
2019-03-15T22:46:17.708Z,99497.20
2019-03-15T22:48:48.220Z,99510.26
2019-03-15T22:51:18.702Z,99504.06
2019-03-15T22:53:49.540Z,99506.56
2019-03-15T22:56:20.297Z,99506.89
2019-03-15T22:58:50.774Z,99487.98
2019-03-15T23:01:30.022Z,99501.84
2019-03-15T23:03:53.486Z,99495.59
2019-03-15T23:06:23.985Z,99507.94
2019-03-15T23:08:54.622Z,99522.95
2019-03-15T23:11:25.133Z,99513.92
2019-03-15T23:13:55.631Z,99513.97
2019-03-15T23:16:26.160Z,99521.54
2019-03-15T23:18:56.646Z,99533.01
2019-03-15T23:21:27.151Z,99529.45
2019-03-15T23:23:57.615Z,99550.60
2019-03-15T23:26:28.162Z,99542.83
2019-03-15T23:28:58.623Z,99548.45
2019-03-15T23:31:42.510Z,99558.42
2019-03-15T23:34:01.363Z,99561.98
2019-03-15T23:36:31.936Z,99577.08
2019-03-15T23:39:02.389Z,99551.10
2019-03-15T23:41:32.949Z,99571.65
2019-03-15T23:44:03.454Z,99577.53
2019-03-15T23:46:33.972Z,99578.03
2019-03-15T23:49:04.505Z,99580.73
2019-03-15T23:51:34.946Z,99584.38
2019-03-15T23:54:05.404Z,99592.50
2019-03-15T23:56:36.882Z,99571.52
2019-03-15T23:59:07.397Z,99605.36
